createdAt,value
2022-10-22T00:00:18.101Z,11.80
2022-10-22T00:01:18.106Z,13.40
2022-10-22T00:02:18.134Z,13.00
2022-10-22T00:03:18.057Z,11.60
2022-10-22T00:04:18.036Z,10.40
2022-10-22T00:05:18.039Z,13.40
2022-10-22T00:06:18.029Z,10.60
2022-10-22T00:07:17.997Z,14.00
2022-10-22T00:08:18.017Z,14.80
2022-10-22T00:09:17.994Z,15.90
2022-10-22T00:10:17.957Z,16.90
2022-10-22T00:11:17.957Z,14.00
2022-10-22T00:12:17.929Z,13.40
2022-10-22T00:13:17.926Z,13.60
2022-10-22T00:14:17.898Z,14.10
2022-10-22T00:15:17.893Z,13.10
2022-10-22T00:16:17.890Z,13.10
2022-10-22T00:17:17.867Z,15.10
2022-10-22T00:18:17.841Z,19.00
2022-10-22T00:19:17.840Z,12.20
2022-10-22T00:20:17.820Z,19.20
2022-10-22T00:21:17.821Z,13.40
2022-10-22T00:22:17.793Z,15.20
2022-10-22T00:23:17.786Z,13.40
2022-10-22T00:24:17.776Z,16.80
2022-10-22T00:25:17.761Z,14.70
2022-10-22T00:26:17.766Z,16.30
2022-10-22T00:27:17.741Z,15.80
2022-10-22T00:28:17.710Z,16.10
2022-10-22T00:29:17.703Z,17.00
2022-10-22T00:30:17.687Z,15.80
2022-10-22T00:31:17.758Z,11.40
2022-10-22T00:32:17.663Z,14.20
2022-10-22T00:33:17.652Z,13.90
2022-10-22T00:34:17.631Z,17.30
2022-10-22T00:35:17.618Z,13.10
2022-10-22T00:36:17.622Z,16.70
2022-10-22T00:37:17.595Z,13.30
2022-10-22T00:38:17.572Z,16.60
2022-10-22T00:39:17.562Z,16.80
2022-10-22T00:40:17.544Z,15.20
2022-10-22T00:41:17.556Z,15.50
2022-10-22T00:42:17.516Z,13.40
2022-10-22T00:43:17.514Z,13.40
2022-10-22T00:44:17.494Z,16.40
2022-10-22T00:45:17.484Z,12.60
2022-10-22T00:46:17.465Z,18.00
2022-10-22T00:47:17.466Z,10.30
2022-10-22T00:48:17.446Z,18.80
2022-10-22T00:49:17.427Z,13.60
2022-10-22T00:50:17.419Z,9.60
2022-10-22T00:51:17.395Z,17.00
2022-10-22T00:52:17.406Z,12.10
2022-10-22T00:53:17.375Z,16.10
2022-10-22T00:54:17.357Z,13.10
2022-10-22T00:55:17.345Z,12.00
2022-10-22T00:56:17.343Z,11.30
2022-10-22T00:57:17.317Z,15.70
2022-10-22T00:58:17.297Z,14.50
2022-10-22T00:59:17.289Z,15.20
2022-10-22T01:00:17.278Z,17.30
2022-10-22T01:01:17.321Z,13.20
2022-10-22T01:02:17.247Z,13.70
2022-10-22T01:03:17.238Z,13.80
2022-10-22T01:04:17.246Z,15.30
2022-10-22T01:05:17.207Z,13.90
2022-10-22T01:06:17.200Z,15.40
2022-10-22T01:07:17.178Z,14.80
2022-10-22T01:08:17.173Z,16.30
2022-10-22T01:09:17.164Z,18.60
2022-10-22T01:10:17.139Z,16.60
2022-10-22T01:11:17.139Z,11.90
2022-10-22T01:12:17.111Z,13.20
2022-10-22T01:13:17.108Z,17.70
2022-10-22T01:14:17.079Z,14.80
2022-10-22T01:15:17.071Z,12.50
2022-10-22T01:16:17.071Z,15.40
2022-10-22T01:17:17.116Z,13.90
2022-10-22T01:18:17.034Z,16.30
2022-10-22T01:19:17.023Z,15.70
2022-10-22T01:20:17.029Z,17.00
2022-10-22T01:21:17.008Z,19.40
2022-10-22T01:22:16.970Z,12.60
2022-10-22T01:23:16.969Z,15.60
2022-10-22T01:24:16.951Z,12.60
2022-10-22T01:25:16.942Z,15.70
2022-10-22T01:26:17.009Z,15.50
2022-10-22T01:27:16.912Z,12.50
2022-10-22T01:28:16.900Z,16.90
2022-10-22T01:29:16.884Z,15.60
2022-10-22T01:30:16.862Z,17.90
2022-10-22T01:31:16.873Z,15.60
2022-10-22T01:32:16.845Z,15.90
2022-10-22T01:33:16.833Z,22.20
2022-10-22T01:34:16.821Z,15.30
2022-10-22T01:35:16.803Z,22.30
2022-10-22T01:36:16.803Z,10.90
2022-10-22T01:37:16.775Z,18.40
2022-10-22T01:38:16.754Z,18.40
2022-10-22T01:39:16.773Z,13.00
2022-10-22T01:40:16.732Z,16.40
2022-10-22T01:41:16.743Z,18.60
2022-10-22T01:42:16.706Z,17.10
2022-10-22T01:43:16.708Z,16.40
2022-10-22T01:44:16.686Z,21.20
2022-10-22T01:45:16.694Z,16.50
2022-10-22T01:46:16.729Z,19.10
2022-10-22T01:47:16.646Z,20.40
2022-10-22T01:48:16.629Z,16.30
2022-10-22T01:49:16.612Z,16.90
2022-10-22T01:50:16.596Z,18.70
2022-10-22T01:51:16.597Z,19.50
2022-10-22T01:52:16.576Z,15.50
2022-10-22T01:53:16.557Z,18.50
2022-10-22T01:54:16.547Z,19.50
2022-10-22T01:55:16.528Z,18.70
2022-10-22T01:56:16.539Z,18.20
2022-10-22T01:57:16.499Z,16.90
2022-10-22T01:58:16.488Z,18.90
2022-10-22T01:59:16.467Z,17.90
2022-10-22T02:00:16.459Z,18.80
2022-10-22T02:01:16.488Z,21.90
2022-10-22T02:02:16.437Z,20.90
2022-10-22T02:03:18.675Z,16.60
2022-10-22T02:04:16.409Z,15.90
2022-10-22T02:05:16.397Z,18.40
2022-10-22T02:06:16.402Z,19.00
2022-10-22T02:07:16.370Z,14.30
2022-10-22T02:08:16.374Z,14.30
2022-10-22T02:09:16.437Z,18.10
2022-10-22T02:10:16.330Z,16.70
2022-10-22T02:11:16.333Z,17.30
2022-10-22T02:12:16.304Z,17.60
2022-10-22T02:13:16.292Z,17.50
2022-10-22T02:14:16.280Z,15.30
2022-10-22T02:15:16.260Z,17.40
2022-10-22T02:16:16.266Z,11.90
2022-10-22T02:17:16.249Z,12.20
2022-10-22T02:18:16.212Z,13.70
2022-10-22T02:19:16.202Z,12.00
2022-10-22T02:20:16.209Z,19.40
2022-10-22T02:21:16.203Z,15.00
2022-10-22T02:22:16.164Z,16.80
2022-10-22T02:23:16.143Z,19.60
2022-10-22T02:24:16.142Z,15.20
2022-10-22T02:25:16.135Z,18.30
2022-10-22T02:26:16.133Z,19.30
2022-10-22T02:27:16.095Z,15.40
2022-10-22T02:28:16.091Z,11.30
2022-10-22T02:29:16.083Z,16.60
2022-10-22T02:31:16.107Z,17.50
2022-10-22T02:32:16.024Z,20.30
2022-10-22T02:33:16.014Z,12.70
2022-10-22T02:34:16.004Z,15.00
2022-10-22T02:35:15.997Z,14.00
2022-10-22T02:36:15.985Z,16.40
2022-10-22T02:37:15.995Z,15.10
2022-10-22T02:38:15.945Z,21.60
2022-10-22T02:40:15.928Z,13.60
2022-10-22T02:41:15.927Z,13.80
2022-10-22T02:42:15.893Z,15.40
2022-10-22T02:43:15.882Z,17.30
2022-10-22T02:44:15.866Z,14.20
2022-10-22T02:45:15.865Z,13.50
2022-10-22T02:46:15.858Z,19.70
2022-10-22T02:47:15.817Z,17.60
2022-10-22T02:48:15.835Z,21.20
2022-10-22T02:49:15.787Z,20.80
2022-10-22T02:50:15.788Z,19.00
2022-10-22T02:51:15.789Z,23.50
2022-10-22T02:52:15.764Z,15.40
2022-10-22T02:53:15.739Z,17.40
2022-10-22T02:54:15.739Z,19.30
2022-10-22T02:55:15.717Z,18.00
2022-10-22T02:56:15.701Z,15.30
2022-10-22T02:57:15.759Z,22.10
2022-10-22T02:58:15.678Z,19.80
2022-10-22T02:59:15.660Z,18.20
2022-10-22T03:00:15.649Z,13.40
2022-10-22T03:01:16.325Z,20.00
2022-10-22T03:02:15.633Z,19.40
2022-10-22T03:03:15.602Z,17.70
2022-10-22T03:04:15.603Z,15.30
2022-10-22T03:05:15.589Z,19.90
2022-10-22T03:06:15.706Z,17.50
2022-10-22T03:07:15.551Z,17.80
2022-10-22T03:08:15.542Z,15.50
2022-10-22T03:09:15.520Z,17.50
2022-10-22T03:10:15.512Z,14.60
2022-10-22T03:11:15.522Z,19.80
2022-10-22T03:12:15.489Z,21.00
2022-10-22T03:13:15.471Z,15.10
2022-10-22T03:14:15.463Z,19.50
2022-10-22T03:15:15.475Z,16.20
2022-10-22T03:16:15.455Z,26.20
2022-10-22T03:17:15.412Z,22.00
2022-10-22T03:18:15.412Z,18.20
2022-10-22T03:19:15.393Z,19.20
2022-10-22T03:20:15.384Z,20.30
2022-10-22T03:21:15.392Z,21.40
2022-10-22T03:22:15.353Z,20.10
2022-10-22T03:23:15.334Z,21.10
2022-10-22T03:24:15.323Z,21.60
2022-10-22T03:25:15.305Z,23.10
2022-10-22T03:26:15.314Z,13.70
2022-10-22T03:27:15.275Z,22.20
2022-10-22T03:28:15.265Z,23.40
2022-10-22T03:29:15.267Z,25.00
2022-10-22T03:30:15.245Z,23.60
2022-10-22T03:31:15.246Z,31.20
2022-10-22T03:32:15.215Z,24.60
2022-10-22T03:33:15.195Z,21.80
2022-10-22T03:34:15.190Z,20.20
2022-10-22T03:35:15.166Z,29.40
2022-10-22T03:36:15.176Z,22.80
2022-10-22T03:37:15.154Z,21.50
2022-10-22T03:38:15.136Z,25.60
2022-10-22T03:39:15.117Z,24.70
2022-10-22T03:40:15.105Z,20.50
2022-10-22T03:41:15.116Z,20.60
2022-10-22T03:42:15.079Z,31.40
2022-10-22T03:43:15.069Z,20.80
2022-10-22T03:44:15.057Z,21.20
2022-10-22T03:45:15.052Z,21.00
2022-10-22T03:46:15.052Z,20.40
2022-10-22T03:47:15.009Z,25.70
2022-10-22T03:48:14.998Z,21.20
2022-10-22T03:49:14.977Z,20.30
2022-10-22T03:50:14.981Z,17.40
2022-10-22T03:51:14.978Z,24.30
2022-10-22T03:52:14.939Z,18.60
2022-10-22T03:53:14.931Z,18.00
2022-10-22T03:54:14.918Z,26.90
2022-10-22T03:55:14.899Z,23.00
2022-10-22T03:56:14.906Z,20.40
2022-10-22T03:57:14.869Z,22.30
2022-10-22T03:58:14.861Z,16.10
2022-10-22T03:59:14.847Z,19.40
2022-10-22T04:00:14.851Z,22.40
2022-10-22T04:01:14.892Z,23.20
2022-10-22T04:02:14.811Z,18.60
2022-10-22T04:03:14.782Z,18.60
2022-10-22T04:04:14.781Z,19.80
2022-10-22T04:06:14.764Z,22.70
2022-10-22T04:07:14.731Z,20.40
2022-10-22T04:08:14.730Z,22.60
2022-10-22T04:09:14.848Z,22.20
2022-10-22T04:10:14.708Z,24.50
2022-10-22T04:11:14.703Z,27.40
2022-10-22T04:12:14.672Z,28.10
2022-10-22T04:13:14.643Z,28.10
2022-10-22T04:14:14.645Z,25.80
2022-10-22T04:15:14.622Z,22.00
2022-10-22T04:16:14.625Z,23.30
2022-10-22T04:17:14.601Z,25.10
2022-10-22T04:18:14.593Z,24.40
2022-10-22T04:19:14.573Z,25.10
2022-10-22T04:20:14.564Z,27.20
2022-10-22T04:21:14.578Z,23.30
2022-10-22T04:22:14.534Z,27.50
2022-10-22T04:23:14.516Z,24.90
2022-10-22T04:24:14.504Z,24.20
2022-10-22T04:25:14.526Z,21.20
2022-10-22T04:26:14.494Z,23.60
2022-10-22T04:27:14.464Z,24.70
2022-10-22T04:28:14.465Z,23.10
2022-10-22T04:29:16.145Z,26.90
2022-10-22T04:30:14.426Z,31.20
2022-10-22T04:31:14.434Z,29.50
2022-10-22T04:32:14.403Z,35.70
2022-10-22T04:33:14.405Z,28.10
2022-10-22T04:34:14.378Z,28.70
2022-10-22T04:35:14.424Z,27.80
2022-10-22T04:36:14.360Z,29.90
2022-10-22T04:37:14.362Z,32.90
2022-10-22T04:38:14.351Z,32.20
2022-10-22T04:39:14.302Z,32.60
2022-10-22T04:40:14.293Z,30.60
2022-10-22T04:41:14.297Z,35.90
2022-10-22T04:42:14.287Z,35.10
2022-10-22T04:43:14.240Z,31.40
2022-10-22T04:44:17.021Z,32.20
2022-10-22T04:45:14.229Z,37.60
2022-10-22T04:46:14.235Z,31.60
2022-10-22T04:47:14.189Z,35.40
2022-10-22T04:48:14.203Z,34.10
2022-10-22T04:49:14.182Z,34.90
2022-10-22T04:50:14.158Z,33.80
2022-10-22T04:51:14.169Z,38.10
2022-10-22T04:52:14.131Z,41.20
2022-10-22T04:53:14.110Z,40.00
2022-10-22T04:54:15.025Z,40.40
2022-10-22T04:55:14.080Z,35.50
2022-10-22T04:56:14.094Z,39.10
2022-10-22T04:57:14.053Z,34.90
2022-10-22T04:58:14.052Z,38.80
2022-10-22T04:59:14.033Z,37.90
2022-10-22T05:00:14.019Z,40.30
2022-10-22T05:01:14.102Z,36.90
2022-10-22T05:02:13.993Z,42.10
2022-10-22T05:03:13.972Z,38.50
2022-10-22T05:04:13.963Z,39.90
2022-10-22T05:05:13.941Z,42.70
2022-10-22T05:06:14.165Z,43.90
2022-10-22T05:07:13.920Z,46.00
2022-10-22T05:08:13.914Z,38.20
2022-10-22T05:09:13.957Z,40.70
2022-10-22T05:10:13.886Z,37.50
2022-10-22T05:11:13.907Z,44.20
2022-10-22T05:13:25.386Z,39.70
2022-10-22T05:14:23.644Z,39.20
2022-10-22T05:15:23.635Z,43.50
2022-10-22T05:16:23.637Z,47.10
2022-10-22T05:17:23.606Z,41.00
2022-10-22T05:18:23.595Z,42.40
2022-10-22T05:19:23.585Z,44.00
2022-10-22T05:20:23.567Z,42.60
2022-10-22T05:21:23.576Z,41.00
2022-10-22T05:22:23.539Z,38.10
2022-10-22T05:23:23.527Z,38.30
2022-10-22T05:24:23.509Z,43.70
2022-10-22T05:25:23.499Z,41.30
2022-10-22T05:26:23.499Z,35.50
2022-10-22T05:27:23.483Z,42.60
2022-10-22T05:28:23.468Z,42.40
2022-10-22T05:29:23.448Z,40.70
2022-10-22T05:30:23.428Z,40.00
2022-10-22T05:31:23.446Z,41.80
2022-10-22T05:32:23.407Z,40.70
2022-10-22T05:33:24.184Z,45.00
2022-10-22T05:34:23.384Z,43.60
2022-10-22T05:35:23.374Z,42.50
2022-10-22T05:36:23.371Z,44.40
2022-10-22T05:37:23.346Z,49.10
2022-10-22T05:38:23.320Z,43.40
2022-10-22T05:39:23.318Z,42.60
2022-10-22T05:40:30.413Z,48.10
2022-10-22T05:41:24.311Z,48.10
2022-10-22T05:42:23.285Z,40.50
2022-10-22T05:43:23.262Z,48.10
2022-10-22T05:44:23.255Z,45.60
2022-10-22T05:45:23.239Z,44.50
2022-10-22T05:46:23.300Z,42.80
2022-10-22T05:47:23.212Z,41.60
2022-10-22T05:48:23.260Z,43.90
2022-10-22T05:49:23.182Z,41.50
2022-10-22T05:50:23.162Z,38.10
2022-10-22T05:51:23.180Z,39.20
2022-10-22T05:52:23.143Z,44.00
2022-10-22T05:53:23.123Z,37.60
2022-10-22T05:54:23.114Z,43.50
2022-10-22T05:55:23.103Z,291.70
2022-10-22T05:56:23.103Z,192.30
2022-10-22T05:57:23.079Z,151.70
2022-10-22T05:58:23.064Z,182.40
2022-10-22T05:59:23.053Z,107.50
2022-10-22T06:00:23.033Z,57.80
2022-10-22T06:01:23.073Z,45.60
2022-10-22T06:02:23.035Z,34.70
2022-10-22T06:03:22.994Z,31.90
2022-10-22T06:04:22.973Z,35.80
2022-10-22T06:05:22.972Z,37.90
2022-10-22T06:06:22.967Z,37.50
2022-10-22T06:07:22.946Z,30.80
2022-10-22T06:08:22.944Z,31.80
2022-10-22T06:09:22.971Z,35.40
2022-10-22T06:10:22.902Z,29.30
2022-10-22T06:11:22.905Z,32.40
2022-10-22T06:12:22.904Z,31.50
2022-10-22T06:13:22.866Z,29.00
2022-10-22T06:14:22.846Z,31.30
2022-10-22T06:15:22.837Z,33.70
2022-10-22T06:16:22.856Z,32.50
2022-10-22T06:17:22.877Z,34.30
2022-10-22T06:18:22.793Z,30.00
2022-10-22T06:19:22.793Z,34.00
2022-10-22T06:20:22.765Z,39.80
2022-10-22T06:21:22.768Z,31.50
2022-10-22T06:22:22.738Z,29.80
2022-10-22T06:23:22.727Z,38.50
2022-10-22T06:24:22.710Z,25.00
2022-10-22T06:25:22.699Z,27.90
2022-10-22T06:26:22.709Z,31.60
2022-10-22T06:27:22.670Z,32.00
2022-10-22T06:29:22.658Z,38.90
2022-10-22T06:30:22.639Z,29.30
2022-10-22T06:31:22.648Z,29.30
2022-10-22T06:32:22.599Z,32.40
2022-10-22T06:33:22.598Z,24.60
2022-10-22T06:34:22.581Z,21.70
2022-10-22T06:35:22.569Z,39.70
2022-10-22T06:36:22.575Z,37.80
2022-10-22T06:37:22.542Z,23.30
2022-10-22T06:38:22.520Z,40.60
2022-10-22T06:39:22.598Z,38.00
2022-10-22T06:40:22.501Z,23.90
2022-10-22T06:41:24.392Z,18.90
2022-10-22T06:42:22.470Z,22.30
2022-10-22T06:43:22.460Z,22.00
2022-10-22T06:44:22.455Z,20.20
2022-10-22T06:45:22.432Z,19.10
2022-10-22T06:46:22.433Z,100.20
2022-10-22T06:47:22.404Z,24.40
2022-10-22T06:48:22.389Z,254.90
2022-10-22T06:49:22.383Z,27.70
2022-10-22T06:50:22.361Z,42.70
2022-10-22T06:51:22.379Z,27.30
2022-10-22T06:52:22.333Z,24.10
2022-10-22T06:53:22.338Z,21.90
2022-10-22T06:54:22.323Z,19.20
2022-10-22T06:55:22.302Z,16.20
2022-10-22T06:56:22.286Z,17.30
2022-10-22T06:57:22.294Z,18.80
2022-10-22T06:58:22.253Z,19.40
2022-10-22T06:59:22.246Z,14.70
2022-10-22T07:00:22.345Z,17.70
2022-10-22T07:01:22.317Z,88.40
2022-10-22T07:02:22.214Z,28.50
2022-10-22T07:03:22.194Z,30.60
2022-10-22T07:04:22.177Z,15.70
2022-10-22T07:05:22.165Z,18.10
2022-10-22T07:06:22.164Z,32.60
2022-10-22T07:07:22.155Z,15.60
2022-10-22T07:08:22.132Z,16.40
2022-10-22T07:09:22.167Z,19.90
2022-10-22T07:10:22.266Z,11.10
2022-10-22T07:11:22.092Z,14.50
2022-10-22T07:12:22.095Z,13.90
2022-10-22T07:13:22.056Z,14.10
2022-10-22T07:14:22.049Z,16.30
2022-10-22T07:15:22.036Z,14.00
2022-10-22T07:16:22.019Z,11.60
2022-10-22T07:17:22.026Z,15.20
2022-10-22T07:18:21.987Z,22.50
2022-10-22T07:19:21.978Z,24.30
2022-10-22T07:20:21.967Z,17.60
2022-10-22T07:21:21.959Z,20.30
2022-10-22T07:22:21.947Z,17.80
2022-10-22T07:23:21.927Z,14.70
2022-10-22T07:24:21.908Z,14.40
2022-10-22T07:25:21.906Z,21.70
2022-10-22T07:26:21.897Z,19.30
2022-10-22T07:27:21.888Z,17.40
2022-10-22T07:28:21.859Z,15.00
2022-10-22T07:29:21.848Z,16.70
2022-10-22T07:30:21.828Z,15.60
2022-10-22T07:31:21.829Z,15.80
2022-10-22T07:32:23.933Z,13.60
2022-10-22T07:33:21.790Z,14.70
2022-10-22T07:34:21.783Z,12.50
2022-10-22T07:35:21.768Z,17.50
2022-10-22T07:36:21.748Z,34.20
2022-10-22T07:37:21.763Z,57.80
2022-10-22T07:38:21.760Z,63.80
2022-10-22T07:39:21.719Z,146.00
2022-10-22T07:40:21.701Z,132.20
2022-10-22T07:41:21.702Z,21.00
2022-10-22T07:42:21.698Z,23.90
2022-10-22T07:43:21.661Z,16.80
2022-10-22T07:44:21.649Z,15.70
2022-10-22T07:45:21.641Z,9.20
2022-10-22T07:46:21.632Z,12.20
2022-10-22T07:47:21.610Z,13.30
2022-10-22T07:48:21.592Z,12.20
2022-10-22T07:49:21.592Z,16.60
2022-10-22T07:50:21.573Z,7.30
2022-10-22T07:51:21.553Z,11.30
2022-10-22T07:52:21.563Z,8.50
2022-10-22T07:53:21.535Z,12.90
2022-10-22T07:54:21.513Z,8.80
2022-10-22T07:55:21.503Z,15.90
2022-10-22T07:56:21.485Z,13.20
2022-10-22T07:57:21.495Z,8.90
2022-10-22T07:58:21.456Z,10.10
2022-10-22T07:59:21.445Z,15.10
2022-10-22T08:00:24.489Z,11.10
2022-10-22T08:01:21.479Z,10.20
2022-10-22T08:02:21.426Z,11.20
2022-10-22T08:03:21.396Z,10.80
2022-10-22T08:04:21.377Z,6.90
2022-10-22T08:05:21.374Z,10.40
2022-10-22T08:06:21.355Z,9.80
2022-10-22T08:07:21.369Z,10.80
2022-10-22T08:08:21.326Z,7.70
2022-10-22T08:09:21.317Z,9.80
2022-10-22T08:10:21.350Z,11.40
2022-10-22T08:11:21.287Z,10.90
2022-10-22T08:12:21.287Z,10.70
2022-10-22T08:13:21.267Z,14.20
2022-10-22T08:14:21.247Z,6.90
2022-10-22T08:15:21.237Z,8.70
2022-10-22T08:16:21.230Z,13.10
2022-10-22T08:17:21.227Z,11.20
2022-10-22T08:18:21.208Z,7.10
2022-10-22T08:19:21.185Z,8.20
2022-10-22T08:20:21.179Z,8.90
2022-10-22T08:21:21.157Z,13.10
2022-10-22T08:22:21.150Z,9.00
2022-10-22T08:23:25.853Z,8.50
2022-10-22T08:24:22.110Z,8.30
2022-10-22T08:25:21.117Z,11.00
2022-10-22T08:26:21.081Z,10.40
2022-10-22T08:27:21.095Z,11.10
2022-10-22T08:28:22.136Z,13.20
2022-10-22T08:29:21.050Z,7.80
2022-10-22T08:30:21.033Z,9.70
2022-10-22T08:31:21.020Z,7.00
2022-10-22T08:32:21.057Z,7.60
2022-10-22T08:33:20.994Z,7.90
2022-10-22T08:34:20.989Z,10.00
2022-10-22T08:35:20.971Z,8.10
2022-10-22T08:36:20.952Z,14.30
2022-10-22T08:37:20.962Z,8.40
2022-10-22T08:38:20.922Z,9.80
2022-10-22T08:39:20.913Z,9.30
2022-10-22T08:40:20.902Z,13.00
2022-10-22T08:41:20.890Z,10.60
2022-10-22T08:42:20.894Z,31.50
2022-10-22T08:43:20.866Z,87.30
2022-10-22T08:44:20.845Z,15.50
2022-10-22T08:45:20.833Z,11.30
2022-10-22T08:46:20.826Z,10.50
2022-10-22T08:47:22.426Z,11.90
2022-10-22T08:48:20.796Z,8.80
2022-10-22T08:49:20.784Z,10.20
2022-10-22T08:50:20.766Z,12.50
2022-10-22T08:51:20.758Z,9.00
2022-10-22T08:52:20.745Z,10.20
2022-10-22T08:53:20.725Z,12.00
2022-10-22T08:54:20.713Z,11.90
2022-10-22T08:55:20.707Z,13.00
2022-10-22T08:56:20.676Z,13.90
2022-10-22T08:57:20.740Z,10.20
2022-10-22T08:58:20.658Z,10.70
2022-10-22T08:59:20.647Z,12.10
2022-10-22T09:00:20.629Z,10.90
2022-10-22T09:01:20.637Z,7.20
2022-10-22T09:02:20.607Z,10.40
2022-10-22T09:03:20.606Z,9.50
2022-10-22T09:04:20.578Z,15.50
2022-10-22T09:05:20.568Z,59.30
2022-10-22T09:06:20.569Z,10.30
2022-10-22T09:07:20.538Z,10.60
2022-10-22T09:08:20.520Z,10.30
2022-10-22T09:09:20.517Z,13.20
2022-10-22T09:10:20.497Z,10.10
2022-10-22T09:11:20.499Z,10.40
2022-10-22T09:12:20.627Z,7.70
2022-10-22T09:13:20.459Z,20.00
2022-10-22T09:14:20.452Z,108.70
2022-10-22T09:15:20.430Z,51.30
2022-10-22T09:16:20.440Z,19.40
2022-10-22T09:17:20.400Z,10.80
2022-10-22T09:18:20.390Z,9.70
2022-10-22T09:19:20.380Z,10.70
2022-10-22T09:20:20.370Z,10.10
2022-10-22T09:21:20.361Z,8.60
2022-10-22T09:22:20.342Z,11.70
2022-10-22T09:23:20.325Z,8.30
2022-10-22T09:24:20.320Z,8.50
2022-10-22T09:25:20.303Z,6.90
2022-10-22T09:26:20.304Z,11.60
2022-10-22T09:27:20.275Z,9.60
2022-10-22T09:28:20.262Z,12.60
2022-10-22T09:29:20.261Z,13.40
2022-10-22T09:30:20.239Z,11.70
2022-10-22T09:31:20.243Z,11.30
2022-10-22T09:32:20.211Z,35.60
2022-10-22T09:33:22.657Z,39.10
2022-10-22T09:34:20.185Z,10.80
2022-10-22T09:35:20.164Z,13.20
2022-10-22T09:36:20.175Z,9.40
2022-10-22T09:37:20.145Z,10.30
2022-10-22T09:38:20.136Z,11.50
2022-10-22T09:39:20.139Z,11.60
2022-10-22T09:40:20.107Z,11.80
2022-10-22T09:41:20.106Z,8.70
2022-10-22T09:42:20.087Z,11.00
2022-10-22T09:43:20.069Z,9.20
2022-10-22T09:44:20.057Z,7.70
2022-10-22T09:45:20.037Z,10.90
2022-10-22T09:46:20.046Z,7.70
2022-10-22T09:47:20.015Z,7.60
2022-10-22T09:48:20.005Z,8.40
2022-10-22T09:49:19.992Z,8.30
2022-10-22T09:50:19.977Z,6.60
2022-10-22T09:51:19.976Z,13.20
2022-10-22T09:52:19.950Z,10.00
2022-10-22T09:53:19.928Z,12.00
2022-10-22T09:54:19.932Z,9.20
2022-10-22T09:55:19.913Z,6.10
2022-10-22T09:56:19.917Z,12.10
2022-10-22T09:57:19.891Z,7.60
2022-10-22T09:58:19.873Z,9.30
2022-10-22T09:59:19.850Z,8.30
2022-10-22T10:00:19.851Z,7.20
2022-10-22T10:01:19.842Z,9.20
2022-10-22T10:02:33.561Z,10.40
2022-10-22T10:03:20.909Z,9.20
2022-10-22T10:04:19.815Z,8.50
2022-10-22T10:05:19.771Z,9.90
2022-10-22T10:06:19.786Z,6.00
2022-10-22T10:07:19.749Z,10.80
2022-10-22T10:08:19.739Z,7.40
2022-10-22T10:09:19.784Z,8.20
2022-10-22T10:10:19.719Z,10.50
2022-10-22T10:11:19.712Z,6.70
2022-10-22T10:12:19.684Z,10.80
2022-10-22T10:13:19.666Z,8.60
2022-10-22T10:14:19.663Z,8.40
2022-10-22T10:15:19.646Z,9.00
2022-10-22T10:16:19.645Z,9.50
2022-10-22T10:17:19.618Z,8.40
2022-10-22T10:18:19.605Z,9.30
2022-10-22T10:19:19.592Z,6.60
2022-10-22T10:20:19.582Z,8.30
2022-10-22T10:21:19.589Z,9.40
2022-10-22T10:22:19.554Z,7.50
2022-10-22T10:23:22.960Z,8.60
2022-10-22T10:24:20.528Z,9.10
2022-10-22T10:25:19.505Z,8.70
2022-10-22T10:26:19.515Z,6.90
2022-10-22T10:27:19.476Z,9.70
2022-10-22T10:28:19.466Z,7.20
2022-10-22T10:29:19.448Z,4.40
2022-10-22T10:30:19.438Z,8.40
2022-10-22T10:31:19.437Z,9.00
2022-10-22T10:32:22.316Z,6.20
2022-10-22T10:33:20.398Z,7.80
2022-10-22T10:34:19.389Z,6.70
2022-10-22T10:35:19.397Z,9.60
2022-10-22T10:36:19.397Z,10.50
2022-10-22T10:37:19.347Z,8.10
2022-10-22T10:38:19.449Z,7.40
2022-10-22T10:39:19.326Z,7.60
2022-10-22T10:40:19.311Z,7.70
2022-10-22T10:41:19.304Z,8.70
2022-10-22T10:42:19.280Z,8.00
2022-10-22T10:43:19.278Z,5.70
2022-10-22T10:44:19.261Z,4.00
2022-10-22T10:45:19.238Z,5.60
2022-10-22T10:46:19.284Z,10.10
2022-10-22T10:47:19.208Z,7.20
2022-10-22T10:48:19.202Z,9.30
2022-10-22T10:49:19.181Z,7.10
2022-10-22T10:50:19.173Z,9.50
2022-10-22T10:51:19.172Z,7.00
2022-10-22T10:52:21.353Z,9.10
2022-10-22T10:53:19.131Z,13.70
2022-10-22T10:54:19.123Z,8.40
2022-10-22T10:55:19.103Z,9.30
2022-10-22T10:56:19.112Z,11.60
2022-10-22T10:57:19.074Z,7.80
2022-10-22T10:58:19.073Z,6.50
2022-10-22T10:59:19.054Z,6.80
2022-10-22T11:00:19.042Z,5.80
2022-10-22T11:01:19.066Z,4.80
2022-10-22T11:02:19.015Z,11.60
2022-10-22T11:03:19.025Z,7.20
2022-10-22T11:04:18.985Z,5.60
2022-10-22T11:05:18.966Z,6.80
2022-10-22T11:06:21.575Z,8.90
2022-10-22T11:07:33.525Z,7.80
2022-10-22T11:08:19.936Z,8.80
2022-10-22T11:09:18.979Z,7.70
2022-10-22T11:10:18.907Z,7.60
2022-10-22T11:11:18.907Z,8.10
2022-10-22T11:12:18.876Z,7.50
2022-10-22T11:14:30.073Z,11.00
2022-10-22T11:15:28.666Z,13.10
2022-10-22T11:16:28.659Z,8.50
2022-10-22T11:17:28.631Z,8.20
2022-10-22T11:18:28.621Z,5.70
2022-10-22T11:19:49.608Z,7.20
2022-10-22T11:20:29.598Z,7.90
2022-10-22T11:21:28.601Z,8.30
2022-10-22T11:22:28.571Z,6.00
2022-10-22T11:23:28.553Z,5.40
2022-10-22T11:24:28.543Z,7.90
2022-10-22T11:25:28.523Z,7.80
2022-10-22T11:26:28.533Z,7.20
2022-10-22T11:27:28.503Z,5.60
2022-10-22T11:28:28.492Z,5.00
2022-10-22T11:29:30.724Z,8.70
2022-10-22T11:30:28.463Z,9.10
2022-10-22T11:31:28.454Z,7.20
2022-10-22T11:32:28.454Z,6.20
2022-10-22T11:33:28.424Z,6.00
2022-10-22T11:34:33.730Z,8.60
2022-10-22T11:35:29.398Z,9.40
2022-10-22T11:36:28.462Z,7.90
2022-10-22T11:37:28.373Z,6.30
2022-10-22T11:38:30.653Z,9.40
2022-10-22T11:39:28.345Z,9.00
2022-10-22T11:40:28.333Z,8.20
2022-10-22T11:41:28.326Z,7.80
2022-10-22T11:42:28.306Z,5.80
2022-10-22T11:43:28.286Z,7.00
2022-10-22T11:44:28.276Z,5.90
2022-10-22T11:45:28.256Z,6.00
2022-10-22T11:46:28.268Z,9.10
2022-10-22T11:47:28.246Z,10.40
2022-10-22T11:48:28.227Z,8.40
2022-10-22T11:49:28.209Z,7.10
2022-10-22T11:50:28.216Z,6.30
2022-10-22T11:51:28.189Z,6.10
2022-10-22T11:52:28.172Z,6.40
2022-10-22T11:53:28.158Z,8.40
2022-10-22T11:54:28.146Z,5.40
2022-10-22T11:55:28.150Z,8.00
2022-10-22T11:56:28.120Z,4.60
2022-10-22T11:57:28.108Z,7.20
2022-10-22T11:58:28.098Z,6.70
2022-10-22T11:59:28.070Z,6.00
2022-10-22T12:00:28.082Z,6.20
2022-10-22T12:01:28.090Z,6.80
2022-10-22T12:02:28.042Z,11.30
2022-10-22T12:03:28.021Z,7.50
2022-10-22T12:04:28.026Z,6.20
2022-10-22T12:05:28.018Z,7.50
2022-10-22T12:06:27.993Z,5.70
2022-10-22T12:07:27.973Z,6.80
2022-10-22T12:08:27.973Z,6.80
2022-10-22T12:09:27.953Z,6.70
2022-10-22T12:10:27.954Z,5.60
2022-10-22T12:11:27.921Z,8.70
2022-10-22T12:12:27.904Z,7.60
2022-10-22T12:13:27.885Z,7.10
2022-10-22T12:14:27.884Z,5.90
2022-10-22T12:15:27.893Z,9.20
2022-10-22T12:16:37.862Z,7.60
2022-10-22T12:17:28.834Z,7.50
2022-10-22T12:18:27.832Z,6.80
2022-10-22T12:19:27.807Z,6.90
2022-10-22T12:20:27.794Z,9.30
2022-10-22T12:21:27.796Z,6.00
2022-10-22T12:22:27.772Z,9.10
2022-10-22T12:23:27.757Z,6.40
2022-10-22T12:24:27.752Z,6.20
2022-10-22T12:25:30.078Z,4.30
2022-10-22T12:26:28.738Z,7.00
2022-10-22T12:27:27.707Z,5.80
2022-10-22T12:28:27.687Z,8.40
2022-10-22T12:29:27.669Z,4.90
2022-10-22T12:30:27.658Z,9.10
2022-10-22T12:31:27.657Z,7.10
2022-10-22T12:32:27.636Z,6.40
2022-10-22T12:33:27.619Z,11.70
2022-10-22T12:34:27.618Z,6.80
2022-10-22T12:35:27.588Z,5.10
2022-10-22T12:36:27.609Z,6.50
2022-10-22T12:37:27.570Z,5.70
2022-10-22T12:38:27.550Z,5.70
2022-10-22T12:39:27.549Z,5.90
2022-10-22T12:40:27.539Z,6.40
2022-10-22T12:41:27.530Z,6.00
2022-10-22T12:42:27.499Z,7.80
2022-10-22T12:43:27.484Z,4.70
2022-10-22T12:44:27.471Z,7.20
2022-10-22T12:45:27.458Z,6.40
2022-10-22T12:46:27.463Z,9.60
2022-10-22T12:47:27.470Z,11.20
2022-10-22T12:48:27.411Z,6.60
2022-10-22T12:49:27.411Z,6.10
2022-10-22T12:50:27.392Z,8.60
2022-10-22T12:51:27.421Z,7.80
2022-10-22T12:52:27.362Z,7.40
2022-10-22T12:53:27.350Z,8.40
2022-10-22T12:54:27.333Z,6.20
2022-10-22T12:55:27.321Z,5.20
2022-10-22T12:56:27.331Z,8.40
2022-10-22T12:57:27.296Z,3.80
2022-10-22T12:58:27.286Z,4.70
2022-10-22T12:59:27.263Z,6.30
2022-10-22T13:00:27.295Z,5.10
2022-10-22T13:01:27.254Z,7.30
2022-10-22T13:02:27.234Z,6.10
2022-10-22T13:03:27.214Z,6.40
2022-10-22T13:04:27.207Z,5.80
2022-10-22T13:05:27.211Z,6.20